sensor_id;sensor_type;location;lat;lon;timestamp;pressure;altitude;pressure_sealevel;temperature;humidity
62978;BME280;49073;42.352;23.808;2023-05-19T00:02:09;94875.69;;;10.48;100.00
62978;BME280;49073;42.352;23.808;2023-05-19T00:05:10;94879.72;;;10.58;100.00
62978;BME280;49073;42.352;23.808;2023-05-19T00:08:15;94876.63;;;10.56;100.00
62978;BME280;49073;42.352;23.808;2023-05-19T00:11:16;94875.16;;;10.58;100.00
62978;BME280;49073;42.352;23.808;2023-05-19T00:14:17;94882.47;;;10.61;100.00
62978;BME280;49073;42.352;23.808;2023-05-19T00:17:18;94875.06;;;10.71;100.00
62978;BME280;49073;42.352;23.808;2023-05-19T00:20:21;94874.63;;;10.69;100.00
62978;BME280;49073;42.352;23.808;2023-05-19T00:23:21;94869.34;;;10.53;100.00
62978;BME280;49073;42.352;23.808;2023-05-19T00:26:23;94869.69;;;10.51;100.00
62978;BME280;49073;42.352;23.808;2023-05-19T00:29:24;94882.56;;;10.49;100.00
62978;BME280;49073;42.352;23.808;2023-05-19T00:32:24;94880.59;;;10.30;100.00
62978;BME280;49073;42.352;23.808;2023-05-19T00:35:25;94877.25;;;10.33;100.00
62978;BME280;49073;42.352;23.808;2023-05-19T00:38:26;94869.94;;;10.46;100.00
62978;BME280;49073;42.352;23.808;2023-05-19T00:41:27;94869.19;;;10.45;100.00
62978;BME280;49073;42.352;23.808;2023-05-19T00:44:27;94860.00;;;10.43;100.00
62978;BME280;49073;42.352;23.808;2023-05-19T00:47:28;94862.88;;;10.38;100.00
62978;BME280;49073;42.352;23.808;2023-05-19T00:50:28;94866.94;;;10.31;100.00
62978;BME280;49073;42.352;23.808;2023-05-19T00:53:31;94861.34;;;10.37;100.00
62978;BME280;49073;42.352;23.808;2023-05-19T00:56:32;94861.78;;;10.39;100.00
62978;BME280;49073;42.352;23.808;2023-05-19T00:59:32;94854.06;;;10.33;100.00
62978;BME280;49073;42.352;23.808;2023-05-19T01:02:33;94858.09;;;10.43;100.00
62978;BME280;49073;42.352;23.808;2023-05-19T01:05:34;94857.84;;;10.48;100.00
62978;BME280;49073;42.352;23.808;2023-05-19T01:08:37;94864.53;;;10.26;100.00
62978;BME280;49073;42.352;23.808;2023-05-19T01:11:37;94865.34;;;10.11;100.00
62978;BME280;49073;42.352;23.808;2023-05-19T01:14:38;94854.88;;;10.02;100.00
62978;BME280;49073;42.352;23.808;2023-05-19T01:18:00;94852.78;;;9.95;100.00
62978;BME280;49073;42.352;23.808;2023-05-19T01:21:23;94859.41;;;10.01;100.00
62978;BME280;49073;42.352;23.808;2023-05-19T01:31:11;94854.00;;;10.14;100.00
62978;BME280;49073;42.352;23.808;2023-05-19T01:34:12;94861.72;;;10.19;100.00
62978;BME280;49073;42.352;23.808;2023-05-19T01:37:15;94855.13;;;10.13;100.00
62978;BME280;49073;42.352;23.808;2023-05-19T01:40:18;94861.03;;;10.06;100.00
62978;BME280;49073;42.352;23.808;2023-05-19T01:43:21;94851.25;;;10.10;100.00
62978;BME280;49073;42.352;23.808;2023-05-19T01:46:23;94852.03;;;9.79;100.00
62978;BME280;49073;42.352;23.808;2023-05-19T01:49:24;94850.22;;;9.51;100.00
62978;BME280;49073;42.352;23.808;2023-05-19T01:52:24;94843.78;;;9.68;100.00
62978;BME280;49073;42.352;23.808;2023-05-19T01:55:25;94848.50;;;9.58;100.00
62978;BME280;49073;42.352;23.808;2023-05-19T02:01:56;94854.00;;;9.66;100.00
62978;BME280;49073;42.352;23.808;2023-05-19T02:05:09;94858.47;;;9.78;100.00
62978;BME280;49073;42.352;23.808;2023-05-19T02:08:38;94861.31;;;9.85;100.00
62978;BME280;49073;42.352;23.808;2023-05-19T02:15:10;94868.59;;;9.88;100.00
62978;BME280;49073;42.352;23.808;2023-05-19T02:18:13;94867.47;;;9.89;100.00
62978;BME280;49073;42.352;23.808;2023-05-19T02:21:17;94873.59;;;9.89;100.00
62978;BME280;49073;42.352;23.808;2023-05-19T02:24:17;94873.50;;;9.86;100.00
62978;BME280;49073;42.352;23.808;2023-05-19T02:27:19;94870.59;;;9.75;100.00
62978;BME280;49073;42.352;23.808;2023-05-19T02:30:20;94866.56;;;9.81;100.00
62978;BME280;49073;42.352;23.808;2023-05-19T02:33:20;94864.22;;;9.80;100.00
62978;BME280;49073;42.352;23.808;2023-05-19T02:36:23;94868.44;;;9.81;100.00
62978;BME280;49073;42.352;23.808;2023-05-19T02:39:25;94865.00;;;9.80;100.00
62978;BME280;49073;42.352;23.808;2023-05-19T02:42:28;94875.41;;;9.85;100.00
62978;BME280;49073;42.352;23.808;2023-05-19T02:45:28;94878.47;;;9.87;100.00
62978;BME280;49073;42.352;23.808;2023-05-19T02:48:29;94870.81;;;9.86;100.00
62978;BME280;49073;42.352;23.808;2023-05-19T02:51:30;94884.06;;;9.82;100.00
62978;BME280;49073;42.352;23.808;2023-05-19T02:54:30;94883.28;;;9.82;100.00
62978;BME280;49073;42.352;23.808;2023-05-19T02:57:33;94879.50;;;9.83;100.00
62978;BME280;49073;42.352;23.808;2023-05-19T03:00:34;94880.63;;;9.82;100.00
62978;BME280;49073;42.352;23.808;2023-05-19T03:03:35;94885.19;;;9.81;100.00
62978;BME280;49073;42.352;23.808;2023-05-19T03:06:35;94882.09;;;9.79;100.00
62978;BME280;49073;42.352;23.808;2023-05-19T03:09:36;94889.28;;;9.79;100.00
62978;BME280;49073;42.352;23.808;2023-05-19T03:12:37;94888.34;;;9.87;100.00
62978;BME280;49073;42.352;23.808;2023-05-19T03:15:38;94890.06;;;9.95;100.00
62978;BME280;49073;42.352;23.808;2023-05-19T03:18:38;94888.25;;;9.99;100.00
62978;BME280;49073;42.352;23.808;2023-05-19T03:21:40;94892.56;;;10.04;100.00
62978;BME280;49073;42.352;23.808;2023-05-19T03:24:41;94892.66;;;10.08;100.00
62978;BME280;49073;42.352;23.808;2023-05-19T03:27:41;94888.63;;;9.98;100.00
62978;BME280;49073;42.352;23.808;2023-05-19T03:30:42;94888.69;;;10.01;100.00
62978;BME280;49073;42.352;23.808;2023-05-19T03:33:43;94896.50;;;10.10;100.00
62978;BME280;49073;42.352;23.808;2023-05-19T03:36:43;94888.53;;;10.10;100.00
62978;BME280;49073;42.352;23.808;2023-05-19T03:39:45;94897.63;;;10.09;100.00
62978;BME280;49073;42.352;23.808;2023-05-19T03:42:46;94887.06;;;10.13;100.00
62978;BME280;49073;42.352;23.808;2023-05-19T03:45:46;94896.94;;;9.96;100.00
62978;BME280;49073;42.352;23.808;2023-05-19T03:48:47;94889.63;;;9.93;100.00
62978;BME280;49073;42.352;23.808;2023-05-19T03:51:47;94900.22;;;9.89;100.00
62978;BME280;49073;42.352;23.808;2023-05-19T03:54:48;94910.94;;;9.93;100.00
62978;BME280;49073;42.352;23.808;2023-05-19T03:57:50;94906.03;;;9.95;100.00
62978;BME280;49073;42.352;23.808;2023-05-19T04:00:51;94910.94;;;10.25;100.00
62978;BME280;49073;42.352;23.808;2023-05-19T04:03:53;94910.84;;;10.22;100.00
62978;BME280;49073;42.352;23.808;2023-05-19T04:06:54;94910.41;;;10.19;100.00
62978;BME280;49073;42.352;23.808;2023-05-19T04:09:56;94912.06;;;10.24;100.00
62978;BME280;49073;42.352;23.808;2023-05-19T04:12:56;94921.34;;;10.30;100.00
62978;BME280;49073;42.352;23.808;2023-05-19T04:15:57;94916.44;;;10.32;100.00
62978;BME280;49073;42.352;23.808;2023-05-19T04:18:58;94916.16;;;10.38;100.00
62978;BME280;49073;42.352;23.808;2023-05-19T04:21:58;94924.50;;;10.52;100.00
62978;BME280;49073;42.352;23.808;2023-05-19T04:24:59;94919.78;;;10.61;100.00
62978;BME280;49073;42.352;23.808;2023-05-19T04:27:59;94919.59;;;10.70;100.00
62978;BME280;49073;42.352;23.808;2023-05-19T04:31:00;94914.34;;;10.74;100.00
62978;BME280;49073;42.352;23.808;2023-05-19T04:34:02;94919.84;;;11.01;100.00
62978;BME280;49073;42.352;23.808;2023-05-19T04:37:03;94919.28;;;11.11;100.00
62978;BME280;49073;42.352;23.808;2023-05-19T04:40:04;94919.28;;;11.11;100.00
62978;BME280;49073;42.352;23.808;2023-05-19T04:43:05;94927.09;;;11.20;100.00
62978;BME280;49073;42.352;23.808;2023-05-19T04:46:07;94934.66;;;11.18;100.00
62978;BME280;49073;42.352;23.808;2023-05-19T04:49:09;94932.09;;;11.22;100.00
62978;BME280;49073;42.352;23.808;2023-05-19T04:52:11;94922.66;;;11.08;100.00
62978;BME280;49073;42.352;23.808;2023-05-19T04:55:13;94925.78;;;11.30;100.00
62978;BME280;49073;42.352;23.808;2023-05-19T04:58:14;94928.63;;;11.41;100.00
62978;BME280;49073;42.352;23.808;2023-05-19T05:01:16;94941.41;;;11.31;100.00
62978;BME280;49073;42.352;23.808;2023-05-19T05:04:16;94930.75;;;11.31;100.00
62978;BME280;49073;42.352;23.808;2023-05-19T05:07:17;94941.41;;;11.31;100.00
62978;BME280;49073;42.352;23.808;2023-05-19T05:10:17;94934.31;;;11.59;100.00
62978;BME280;49073;42.352;23.808;2023-05-19T05:13:21;94931.16;;;11.53;100.00
62978;BME280;49073;42.352;23.808;2023-05-19T05:16:22;94938.28;;;11.88;100.00
62978;BME280;49073;42.352;23.808;2023-05-19T05:19:23;94939.03;;;12.08;97.32
62978;BME280;49073;42.352;23.808;2023-05-19T05:22:24;94928.34;;;12.08;95.13
62978;BME280;49073;42.352;23.808;2023-05-19T05:25:25;94937.81;;;12.29;92.35
62978;BME280;49073;42.352;23.808;2023-05-19T05:28:26;94938.25;;;12.31;94.01
62978;BME280;49073;42.352;23.808;2023-05-19T05:31:26;94926.56;;;12.40;92.92
62978;BME280;49073;42.352;23.808;2023-05-19T05:34:27;94939.66;;;12.48;90.63
62978;BME280;49073;42.352;23.808;2023-05-19T05:37:27;94935.31;;;12.63;90.12
62978;BME280;49073;42.352;23.808;2023-05-19T05:40:28;94942.34;;;12.75;90.09
62978;BME280;49073;42.352;23.808;2023-05-19T05:43:29;94945.25;;;12.93;87.40
62978;BME280;49073;42.352;23.808;2023-05-19T05:46:33;94947.28;;;13.00;88.07
62978;BME280;49073;42.352;23.808;2023-05-19T05:49:34;94950.75;;;13.04;87.28
62978;BME280;49073;42.352;23.808;2023-05-19T05:52:38;94941.97;;;13.04;86.92
62978;BME280;49073;42.352;23.808;2023-05-19T05:55:40;94949.41;;;13.18;87.98
62978;BME280;49073;42.352;23.808;2023-05-19T05:58:41;94949.47;;;13.21;87.39
62978;BME280;49073;42.352;23.808;2023-05-19T06:01:41;94940.78;;;13.32;87.57
62978;BME280;49073;42.352;23.808;2023-05-19T06:04:43;94948.09;;;13.35;86.79
62978;BME280;49073;42.352;23.808;2023-05-19T06:07:43;94959.16;;;13.33;85.76
62978;BME280;49073;42.352;23.808;2023-05-19T06:10:45;94968.75;;;13.34;84.79
62978;BME280;49073;42.352;23.808;2023-05-19T06:13:45;94965.75;;;13.39;86.58
62978;BME280;49073;42.352;23.808;2023-05-19T06:16:46;94960.44;;;13.43;84.70
62978;BME280;49073;42.352;23.808;2023-05-19T06:19:47;94966.28;;;13.52;86.36
62978;BME280;49073;42.352;23.808;2023-05-19T06:22:47;94969.06;;;13.60;87.24
62978;BME280;49073;42.352;23.808;2023-05-19T06:25:48;94973.56;;;13.52;85.27
62978;BME280;49073;42.352;23.808;2023-05-19T06:28:48;94984.63;;;13.50;83.88
62978;BME280;49073;42.352;23.808;2023-05-19T06:31:49;94977.00;;;13.52;84.27
62978;BME280;49073;42.352;23.808;2023-05-19T06:34:50;94978.25;;;13.59;84.55
62978;BME280;49073;42.352;23.808;2023-05-19T06:37:53;94978.72;;;13.68;86.53
62978;BME280;49073;42.352;23.808;2023-05-19T06:40:55;94978.81;;;13.79;87.13
62978;BME280;49073;42.352;23.808;2023-05-19T06:43:56;94989.75;;;13.97;85.08
62978;BME280;49073;42.352;23.808;2023-05-19T06:46:56;94972.16;;;14.00;82.57
62978;BME280;49073;42.352;23.808;2023-05-19T06:49:57;94980.75;;;13.78;81.18
62978;BME280;49073;42.352;23.808;2023-05-19T06:52:57;94978.28;;;13.62;81.13
62978;BME280;49073;42.352;23.808;2023-05-19T06:55:58;94987.81;;;13.60;84.62
62978;BME280;49073;42.352;23.808;2023-05-19T06:58:59;94992.44;;;13.63;84.90
62978;BME280;49073;42.352;23.808;2023-05-19T07:01:59;94985.69;;;13.76;85.24
62978;BME280;49073;42.352;23.808;2023-05-19T07:05:01;94976.28;;;13.90;82.70
62978;BME280;49073;42.352;23.808;2023-05-19T07:08:02;94981.34;;;13.99;81.97
62978;BME280;49073;42.352;23.808;2023-05-19T07:11:04;94978.41;;;14.11;84.19
62978;BME280;49073;42.352;23.808;2023-05-19T07:14:04;94973.16;;;14.22;79.50
62978;BME280;49073;42.352;23.808;2023-05-19T07:17:05;94983.88;;;14.22;80.30
62978;BME280;49073;42.352;23.808;2023-05-19T07:20:06;94977.84;;;14.32;81.98
62978;BME280;49073;42.352;23.808;2023-05-19T07:23:10;94982.56;;;14.50;82.49
62978;BME280;49073;42.352;23.808;2023-05-19T07:26:10;94977.25;;;14.57;82.08
62978;BME280;49073;42.352;23.808;2023-05-19T07:29:11;94976.22;;;14.69;82.16
62978;BME280;49073;42.352;23.808;2023-05-19T07:32:11;94978.97;;;14.76;81.94
62978;BME280;49073;42.352;23.808;2023-05-19T07:35:12;94987.38;;;14.71;78.45
62978;BME280;49073;42.352;23.808;2023-05-19T07:38:12;94978.44;;;14.63;77.97
62978;BME280;49073;42.352;23.808;2023-05-19T07:41:13;94976.56;;;14.67;76.45
62978;BME280;49073;42.352;23.808;2023-05-19T07:44:13;94973.25;;;14.78;80.33
62978;BME280;49073;42.352;23.808;2023-05-19T07:47:14;94972.94;;;14.94;79.92
62978;BME280;49073;42.352;23.808;2023-05-19T07:50:14;94973.81;;;15.05;83.50
62978;BME280;49073;42.352;23.808;2023-05-19T08:04:35;94980.81;;;15.32;75.82
62978;BME280;49073;42.352;23.808;2023-05-19T08:07:36;94979.72;;;15.44;76.65
62978;BME280;49073;42.352;23.808;2023-05-19T08:10:37;94976.69;;;15.45;74.56
62978;BME280;49073;42.352;23.808;2023-05-19T08:13:37;94979.38;;;15.45;74.17
62978;BME280;49073;42.352;23.808;2023-05-19T08:16:38;94982.41;;;15.40;75.05
62978;BME280;49073;42.352;23.808;2023-05-19T08:19:41;94990.88;;;15.42;74.29
62978;BME280;49073;42.352;23.808;2023-05-19T08:22:41;94985.53;;;15.53;76.69
62978;BME280;49073;42.352;23.808;2023-05-19T08:25:42;94984.78;;;15.60;75.51
62978;BME280;49073;42.352;23.808;2023-05-19T08:28:46;94989.09;;;15.82;72.03
62978;BME280;49073;42.352;23.808;2023-05-19T08:31:46;94982.25;;;15.96;74.57
62978;BME280;49073;42.352;23.808;2023-05-19T08:34:47;94984.19;;;16.06;74.01
62978;BME280;49073;42.352;23.808;2023-05-19T08:37:47;94975.00;;;16.43;75.33
62978;BME280;49073;42.352;23.808;2023-05-19T08:40:48;94986.94;;;16.42;73.22
62978;BME280;49073;42.352;23.808;2023-05-19T08:43:48;94978.09;;;16.38;72.43
62978;BME280;49073;42.352;23.808;2023-05-19T08:46:50;94978.09;;;16.67;72.87
62978;BME280;49073;42.352;23.808;2023-05-19T08:49:58;94983.09;;;17.01;76.90
62978;BME280;49073;42.352;23.808;2023-05-19T08:53:09;94981.94;;;16.92;69.61
62978;BME280;49073;42.352;23.808;2023-05-19T08:56:15;94984.25;;;16.97;70.56
62978;BME280;49073;42.352;23.808;2023-05-19T08:59:17;94979.25;;;16.84;70.07
62978;BME280;49073;42.352;23.808;2023-05-19T09:02:19;94980.78;;;16.93;71.03
62978;BME280;49073;42.352;23.808;2023-05-19T09:05:22;94986.19;;;17.00;73.25
62978;BME280;49073;42.352;23.808;2023-05-19T09:08:22;94981.16;;;16.95;68.52
62978;BME280;49073;42.352;23.808;2023-05-19T09:11:23;94981.91;;;16.95;70.71
62978;BME280;49073;42.352;23.808;2023-05-19T09:14:26;94974.22;;;16.90;70.13
62978;BME280;49073;42.352;23.808;2023-05-19T09:17:26;94979.25;;;16.99;72.31
62978;BME280;49073;42.352;23.808;2023-05-19T09:20:29;94971.19;;;16.84;68.28
62978;BME280;49073;42.352;23.808;2023-05-19T09:23:31;94963.09;;;16.81;67.83
62978;BME280;49073;42.352;23.808;2023-05-19T09:26:40;94969.63;;;16.87;69.91
62978;BME280;49073;42.352;23.808;2023-05-19T09:29:41;94964.63;;;16.82;70.77
62978;BME280;49073;42.352;23.808;2023-05-19T09:32:43;94965.75;;;16.95;70.47
62978;BME280;49073;42.352;23.808;2023-05-19T09:35:46;94960.31;;;17.42;68.31
62978;BME280;49073;42.352;23.808;2023-05-19T09:38:47;94960.53;;;17.77;67.66
62978;BME280;49073;42.352;23.808;2023-05-19T09:41:52;94955.44;;;17.94;64.72
62978;BME280;49073;42.352;23.808;2023-05-19T09:44:58;94952.31;;;17.99;63.84
62978;BME280;49073;42.352;23.808;2023-05-19T09:48:03;94956.91;;;18.13;63.88
62978;BME280;49073;42.352;23.808;2023-05-19T09:51:06;94956.59;;;18.03;62.21
62978;BME280;49073;42.352;23.808;2023-05-19T09:54:13;94966.81;;;18.30;57.12
62978;BME280;49073;42.352;23.808;2023-05-19T09:57:14;94960.34;;;18.13;54.62
62978;BME280;49073;42.352;23.808;2023-05-19T10:00:15;94956.06;;;18.27;60.82
62978;BME280;49073;42.352;23.808;2023-05-19T10:03:17;94957.06;;;18.44;66.63
62978;BME280;49073;42.352;23.808;2023-05-19T10:06:20;94951.75;;;18.33;61.13
62978;BME280;49073;42.352;23.808;2023-05-19T10:09:26;94952.56;;;18.30;61.69
62978;BME280;49073;42.352;23.808;2023-05-19T10:12:27;94947.53;;;18.28;62.14
62978;BME280;49073;42.352;23.808;2023-05-19T10:15:29;94949.38;;;18.39;56.82
62978;BME280;49073;42.352;23.808;2023-05-19T10:18:32;94954.88;;;18.28;57.68
62978;BME280;49073;42.352;23.808;2023-05-19T10:21:32;94953.00;;;18.17;58.62
62978;BME280;49073;42.352;23.808;2023-05-19T10:24:33;94955.75;;;18.14;58.44
62978;BME280;49073;42.352;23.808;2023-05-19T10:27:40;94958.28;;;18.39;59.12
62978;BME280;49073;42.352;23.808;2023-05-19T10:30:46;94959.38;;;18.42;61.33
62978;BME280;49073;42.352;23.808;2023-05-19T10:34:04;94965.94;;;18.44;63.05
62978;BME280;49073;42.352;23.808;2023-05-19T10:37:18;94965.03;;;18.62;59.92
62978;BME280;49073;42.352;23.808;2023-05-19T10:40:29;94966.63;;;18.56;61.77
62978;BME280;49073;42.352;23.808;2023-05-19T10:43:57;94963.94;;;18.52;60.67
62978;BME280;49073;42.352;23.808;2023-05-19T10:47:05;94973.91;;;18.59;61.45
62978;BME280;49073;42.352;23.808;2023-05-19T10:50:07;94979.00;;;18.50;63.27
62978;BME280;49073;42.352;23.808;2023-05-19T10:53:13;94984.53;;;18.81;63.76
62978;BME280;49073;42.352;23.808;2023-05-19T10:56:31;94980.84;;;18.60;60.40
62978;BME280;49073;42.352;23.808;2023-05-19T10:59:35;94985.53;;;18.52;60.29
62978;BME280;49073;42.352;23.808;2023-05-19T11:05:40;94980.06;;;18.63;62.62
62978;BME280;49073;42.352;23.808;2023-05-19T11:08:41;94986.16;;;18.18;64.44
62978;BME280;49073;42.352;23.808;2023-05-19T11:14:44;94971.13;;;17.24;65.34
62978;BME280;49073;42.352;23.808;2023-05-19T11:17:47;94990.78;;;17.03;66.60
62978;BME280;49073;42.352;23.808;2023-05-19T11:20:54;95016.16;;;16.73;74.36
62978;BME280;49073;42.352;23.808;2023-05-19T11:23:57;95023.38;;;16.07;77.95
62978;BME280;49073;42.352;23.808;2023-05-19T11:26:57;95018.38;;;15.24;78.50
62978;BME280;49073;42.352;23.808;2023-05-19T11:30:00;95007.97;;;15.16;68.30
62978;BME280;49073;42.352;23.808;2023-05-19T11:33:01;94998.25;;;15.67;78.26
62978;BME280;49073;42.352;23.808;2023-05-19T11:36:03;94987.19;;;15.86;90.39
62978;BME280;49073;42.352;23.808;2023-05-19T11:39:04;94987.25;;;15.94;92.34
62978;BME280;49073;42.352;23.808;2023-05-19T11:42:07;94994.94;;;16.10;88.95
62978;BME280;49073;42.352;23.808;2023-05-19T11:45:09;94991.56;;;16.42;89.20
62978;BME280;49073;42.352;23.808;2023-05-19T11:48:11;94991.94;;;16.55;90.44
62978;BME280;49073;42.352;23.808;2023-05-19T11:51:12;94997.31;;;16.73;89.56
62978;BME280;49073;42.352;23.808;2023-05-19T11:54:12;95006.91;;;16.74;85.77
62978;BME280;49073;42.352;23.808;2023-05-19T11:57:13;95003.47;;;16.88;87.00
62978;BME280;49073;42.352;23.808;2023-05-19T12:00:14;95009.22;;;16.90;84.51
62978;BME280;49073;42.352;23.808;2023-05-19T12:03:14;95008.06;;;16.91;87.77
62978;BME280;49073;42.352;23.808;2023-05-19T12:06:16;95001.53;;;16.85;88.29
62978;BME280;49073;42.352;23.808;2023-05-19T12:09:18;94990.78;;;16.70;88.43
62978;BME280;49073;42.352;23.808;2023-05-19T12:12:21;94985.03;;;16.68;91.50
62978;BME280;49073;42.352;23.808;2023-05-19T12:15:23;94975.78;;;16.77;94.76
62978;BME280;49073;42.352;23.808;2023-05-19T12:18:28;94980.41;;;16.80;93.02
62978;BME280;49073;42.352;23.808;2023-05-19T12:21:28;94973.88;;;16.59;85.91
62978;BME280;49073;42.352;23.808;2023-05-19T12:24:29;94972.34;;;16.58;85.28
62978;BME280;49073;42.352;23.808;2023-05-19T12:27:34;94964.56;;;17.29;85.53
62978;BME280;49073;42.352;23.808;2023-05-19T12:30:36;94967.53;;;17.56;75.39
62978;BME280;49073;42.352;23.808;2023-05-19T12:33:37;94972.16;;;17.59;75.00
62978;BME280;49073;42.352;23.808;2023-05-19T12:36:40;94965.19;;;17.69;69.81
62978;BME280;49073;42.352;23.808;2023-05-19T12:39:41;94968.50;;;17.95;65.55
62978;BME280;49073;42.352;23.808;2023-05-19T12:42:44;94960.09;;;17.86;63.44
62978;BME280;49073;42.352;23.808;2023-05-19T12:45:46;94952.84;;;17.79;63.43
62978;BME280;49073;42.352;23.808;2023-05-19T12:48:47;94950.03;;;18.01;65.00
62978;BME280;49073;42.352;23.808;2023-05-19T12:51:51;94944.59;;;18.12;65.12
62978;BME280;49073;42.352;23.808;2023-05-19T12:55:05;94942.34;;;18.52;64.37
62978;BME280;49073;42.352;23.808;2023-05-19T12:58:06;94953.19;;;18.94;57.24
62978;BME280;49073;42.352;23.808;2023-05-19T13:01:14;94946.59;;;19.33;55.84
62978;BME280;49073;42.352;23.808;2023-05-19T13:04:15;94937.50;;;19.20;49.77
62978;BME280;49073;42.352;23.808;2023-05-19T13:07:16;94927.72;;;19.65;55.87
62978;BME280;49073;42.352;23.808;2023-05-19T13:10:17;94928.16;;;19.90;53.07
62978;BME280;49073;42.352;23.808;2023-05-19T13:13:18;94924.53;;;20.01;56.02
62978;BME280;49073;42.352;23.808;2023-05-19T13:16:19;94920.09;;;19.87;46.97
62978;BME280;49073;42.352;23.808;2023-05-19T13:19:19;94921.66;;;20.15;49.71
62978;BME280;49073;42.352;23.808;2023-05-19T13:22:20;94923.69;;;20.08;49.01
62978;BME280;49073;42.352;23.808;2023-05-19T13:25:21;94910.38;;;19.93;49.76
62978;BME280;49073;42.352;23.808;2023-05-19T13:28:21;94915.19;;;20.33;51.86
62978;BME280;49073;42.352;23.808;2023-05-19T13:31:22;94908.81;;;20.19;48.35
62978;BME280;49073;42.352;23.808;2023-05-19T13:34:23;94910.03;;;20.15;49.11
62978;BME280;49073;42.352;23.808;2023-05-19T13:37:24;94906.84;;;20.24;48.07
62978;BME280;49073;42.352;23.808;2023-05-19T13:40:25;94899.34;;;20.31;48.11
62978;BME280;49073;42.352;23.808;2023-05-19T13:43:27;94901.06;;;20.22;48.13
62978;BME280;49073;42.352;23.808;2023-05-19T13:46:28;94887.91;;;19.96;46.47
62978;BME280;49073;42.352;23.808;2023-05-19T13:49:28;94887.03;;;20.03;48.07
62978;BME280;49073;42.352;23.808;2023-05-19T13:52:29;94902.94;;;20.25;48.74
62978;BME280;49073;42.352;23.808;2023-05-19T13:55:29;94905.34;;;20.19;46.44
62978;BME280;49073;42.352;23.808;2023-05-19T13:58:31;94900.50;;;20.06;48.52
62978;BME280;49073;42.352;23.808;2023-05-19T14:01:31;94898.34;;;20.22;49.69
62978;BME280;49073;42.352;23.808;2023-05-19T14:04:32;94909.06;;;20.29;47.03
62978;BME280;49073;42.352;23.808;2023-05-19T14:07:32;94904.38;;;20.33;48.72
62978;BME280;49073;42.352;23.808;2023-05-19T14:10:34;94904.44;;;20.53;49.20
62978;BME280;49073;42.352;23.808;2023-05-19T14:13:34;94898.09;;;20.60;50.96
62978;BME280;49073;42.352;23.808;2023-05-19T14:16:35;94901.31;;;20.31;47.51
62978;BME280;49073;42.352;23.808;2023-05-19T14:19:35;94900.75;;;20.16;46.42
62978;BME280;49073;42.352;23.808;2023-05-19T14:22:36;94910.91;;;20.35;47.83
62978;BME280;49073;42.352;23.808;2023-05-19T14:25:36;94900.94;;;20.29;44.68
62978;BME280;49073;42.352;23.808;2023-05-19T14:28:37;94902.88;;;20.28;47.22
62978;BME280;49073;42.352;23.808;2023-05-19T14:31:38;94897.94;;;19.96;47.31
62978;BME280;49073;42.352;23.808;2023-05-19T14:34:38;94900.81;;;19.85;49.16
62978;BME280;49073;42.352;23.808;2023-05-19T14:37:39;94900.13;;;20.32;52.02
62978;BME280;49073;42.352;23.808;2023-05-19T14:40:40;94903.78;;;20.45;49.03
62978;BME280;49073;42.352;23.808;2023-05-19T14:43:40;94905.47;;;20.59;49.01
62978;BME280;49073;42.352;23.808;2023-05-19T14:46:43;94905.78;;;20.65;49.06
62978;BME280;49073;42.352;23.808;2023-05-19T14:49:43;94905.19;;;20.54;49.20
62978;BME280;49073;42.352;23.808;2023-05-19T14:52:44;94903.59;;;20.56;49.50
62978;BME280;49073;42.352;23.808;2023-05-19T14:55:46;94906.66;;;20.58;47.75
62978;BME280;49073;42.352;23.808;2023-05-19T14:58:47;94906.22;;;20.60;50.77
62978;BME280;49073;42.352;23.808;2023-05-19T15:01:48;94914.47;;;20.29;48.77
62978;BME280;49073;42.352;23.808;2023-05-19T15:04:48;94910.47;;;20.37;50.10
62978;BME280;49073;42.352;23.808;2023-05-19T15:07:49;94914.63;;;20.18;48.62
62978;BME280;49073;42.352;23.808;2023-05-19T15:10:50;94916.84;;;20.27;50.97
62978;BME280;49073;42.352;23.808;2023-05-19T15:13:51;94927.09;;;20.12;50.33
62978;BME280;49073;42.352;23.808;2023-05-19T15:16:51;94919.22;;;20.21;49.10
62978;BME280;49073;42.352;23.808;2023-05-19T15:19:52;94923.06;;;20.24;48.15
62978;BME280;49073;42.352;23.808;2023-05-19T15:22:52;94918.88;;;20.19;47.78
62978;BME280;49073;42.352;23.808;2023-05-19T15:25:53;94921.66;;;19.84;48.19
62978;BME280;49073;42.352;23.808;2023-05-19T15:28:54;94909.75;;;19.51;48.98
62978;BME280;49073;42.352;23.808;2023-05-19T15:31:55;94910.16;;;19.49;49.62
62978;BME280;49073;42.352;23.808;2023-05-19T15:34:57;94911.63;;;19.54;52.13
62978;BME280;49073;42.352;23.808;2023-05-19T15:37:57;94913.38;;;19.68;52.38
62978;BME280;49073;42.352;23.808;2023-05-19T15:41:07;94911.75;;;19.74;53.22
62978;BME280;49073;42.352;23.808;2023-05-19T15:44:08;94912.91;;;19.76;51.82
62978;BME280;49073;42.352;23.808;2023-05-19T15:47:08;94915.19;;;19.78;51.84
62978;BME280;49073;42.352;23.808;2023-05-19T15:50:09;94919.84;;;19.77;51.29
62978;BME280;49073;42.352;23.808;2023-05-19T15:53:10;94934.88;;;19.79;51.51
62978;BME280;49073;42.352;23.808;2023-05-19T15:56:11;94925.28;;;19.74;49.17
62978;BME280;49073;42.352;23.808;2023-05-19T15:59:12;94930.31;;;19.72;54.21
62978;BME280;49073;42.352;23.808;2023-05-19T16:02:13;94931.22;;;19.61;51.39
62978;BME280;49073;42.352;23.808;2023-05-19T16:05:14;94930.47;;;19.61;51.51
62978;BME280;49073;42.352;23.808;2023-05-19T16:08:14;94937.03;;;19.60;52.38
62978;BME280;49073;42.352;23.808;2023-05-19T16:11:15;94930.06;;;19.62;51.90
62978;BME280;49073;42.352;23.808;2023-05-19T16:14:17;94928.03;;;19.39;51.33
62978;BME280;49073;42.352;23.808;2023-05-19T16:17:17;94932.34;;;19.64;54.68
62978;BME280;49073;42.352;23.808;2023-05-19T16:20:18;94930.78;;;19.67;52.71